»·PEaware :: JUS326 KGPI-KMSO

JUS326 :: KGPI-KMSO

FLIGHT INFORMATION

Flight Status: Arrived
Operator:
USA Jet
More flights by this operator :: More flights under this callsign
Pilot: Erik S. (3779)
Aircraft: MCDONNELL-DOUGLAS DC-9-10
(DC91)
More flights by this aircraft type
Origin: KGPI Glacier Park Intl
United States
Destination: KMSO Missoula Intl
United States
More flights between these airports :: More routes between these airports
Route: +SKOTT2 SKOTT
File this flight plan on PilotEdge
Remarks:
Altitude:
(Current/Filed)
15,000ft
Speed:
(Current/Filed)
390kts
Departed: 15-Apr-18 12:30 PM
Arrived: 15-Apr-18 01:18 PM
Distance/Time
Traveled:
84nm/0:47
Distance/Time
To Go:
Arrived

Flight Plot

Page will automatically refresh every two minutes.


Map Options




Map Legend


Flown Route
Filed Route
Departure Airport
Arrival Airport
Navaid (VOR, NDB)
Fix

Horizontal Profiles

Position Reports

Time Latitude Longitude Heading Altitude Ground
Speed
15-Apr-18 12:17 48.310721 -114.250451 177 2984ft 0kts
15-Apr-18 12:18 48.310721 -114.250451 177 2984ft 0kts
15-Apr-18 12:19 48.310721 -114.250451 177 2984ft 0kts
15-Apr-18 12:20 48.310721 -114.250451 177 2984ft 0kts
15-Apr-18 12:21 48.310721 -114.250451 177 2984ft 0kts
15-Apr-18 12:22 48.311179 -114.250453 196 2984ft 0kts
15-Apr-18 12:23 48.311348 -114.250195 247 2984ft 0kts
15-Apr-18 12:24 48.311160 -114.250889 247 2984ft 0kts
15-Apr-18 12:25 48.311099 -114.251080 240 2984ft 6kts
15-Apr-18 12:26 48.308527 -114.255528 213 2984ft 15kts
15-Apr-18 12:27 48.303280 -114.260915 213 2984ft 31kts
15-Apr-18 12:28 48.299140 -114.267243 23 2984ft 19kts
15-Apr-18 12:29 48.328068 -114.245014 356 4545ft 168kts
15-Apr-18 12:30 48.333212 -114.308483 212 6929ft 224kts
15-Apr-18 12:31 48.277166 -114.276003 130 9605ft 251kts
15-Apr-18 12:32 48.222399 -114.190262 144 10936ft 341kts
15-Apr-18 12:33 48.129148 -114.153676 189 13668ft 364kts
15-Apr-18 12:34 48.022987 -114.156608 180 14949ft 401kts
15-Apr-18 12:35 47.911350 -114.151874 178 14946ft 402kts
15-Apr-18 12:36 47.800076 -114.143744 178 14946ft 402kts
15-Apr-18 12:37 47.688679 -114.135932 178 14946ft 402kts
15-Apr-18 12:38 47.577595 -114.128120 178 14970ft 387kts
15-Apr-18 12:39 47.481175 -114.120885 178 14961ft 318kts
15-Apr-18 12:40 47.401863 -114.114398 178 14941ft 276kts
15-Apr-18 12:41 47.328260 -114.120761 222 12597ft 258kts
15-Apr-18 12:42 47.310216 -114.212465 266 10724ft 240kts
15-Apr-18 12:43 47.297128 -114.302944 252 10556ft 225kts
15-Apr-18 12:44 47.266670 -114.381166 241 10578ft 211kts
15-Apr-18 12:45 47.234915 -114.453065 234 10536ft 211kts
15-Apr-18 12:46 47.187285 -114.495840 171 10517ft 216kts
15-Apr-18 12:47 47.140093 -114.454201 141 8795ft 192kts
15-Apr-18 12:48 47.096316 -114.403228 131 8544ft 205kts
15-Apr-18 12:49 47.065382 -114.349904 124 7533ft 150kts
15-Apr-18 12:50 47.039021 -114.302362 126 6727ft 149kts
15-Apr-18 12:51 47.012424 -114.256750 127 5894ft 144kts
15-Apr-18 12:52 46.986617 -114.212430 127 5106ft 142kts
15-Apr-18 12:53 46.960005 -114.164745 125 6290ft 165kts
15-Apr-18 12:54 46.911149 -114.136966 149 9123ft 202kts
15-Apr-18 12:55 46.900857 -114.054130 86 9267ft 206kts
15-Apr-18 12:56 46.857068 -114.002796 171 8971ft 244kts
15-Apr-18 12:57 46.797679 -114.030449 255 9040ft 245kts
15-Apr-18 12:58 46.833154 -114.099227 315 9904ft 237kts
15-Apr-18 12:59 46.868338 -114.182242 303 9945ft 239kts
15-Apr-18 13:00 46.902489 -114.266246 304 9997ft 239kts
15-Apr-18 13:01 46.938932 -114.348540 305 10042ft 245kts
15-Apr-18 13:02 46.973157 -114.435128 302 10003ft 252kts
15-Apr-18 13:03 47.007897 -114.523443 302 9958ft 249kts
15-Apr-18 13:04 47.041379 -114.610251 302 9910ft 239kts
15-Apr-18 13:05 47.094454 -114.635701 29 9851ft 216kts
15-Apr-18 13:06 47.142169 -114.588735 34 9929ft 198kts
15-Apr-18 13:07 47.146679 -114.510140 93 10062ft 202kts
15-Apr-18 13:08 47.122786 -114.438520 127 9467ft 177kts
15-Apr-18 13:09 47.091614 -114.392761 130 8327ft 152kts
15-Apr-18 13:10 47.064286 -114.347472 125 7537ft 148kts
15-Apr-18 13:11 47.038496 -114.301688 126 6710ft 144kts
15-Apr-18 13:12 47.012930 -114.257614 127 5912ft 140kts
15-Apr-18 13:13 46.987906 -114.214638 127 5146ft 138kts
15-Apr-18 13:14 46.963212 -114.172246 128 4398ft 135kts
15-Apr-18 13:15 46.938895 -114.130536 128 3672ft 134kts
15-Apr-18 13:16 46.917360 -114.093786 131 3212ft 55kts
15-Apr-18 13:17 46.913296 -114.084013 36 3212ft 18kts

Navigation Log

Ident Type
Flight plan parsing failed, navigation log unavailable